Time;durP1;ratioP1;P1;durP2;ratioP2;P2;SDS_P1;SDS_P2;PMS_P1;PMS_P2;Temp;Humidity;BMP_temperature;BMP_pressure;BME280_temperature;BME280_humidity;BME280_pressure;Samples;Min_cycle;Max_cycle;Signal;HPM_P1;HPM_P2
2022/07/23 00:00:34;;;;;;;6.18;5.60;;;26.50;43.70;;;26.50;39.22;97578.59;5006427;28;20083;-53
2022/07/23 00:03:06;;;;;;;5.60;5.10;;;26.40;43.80;;;26.49;38.99;97571.50;5006647;28;20050;-53
2022/07/23 00:05:35;;;;;;;6.38;5.80;;;26.40;44.00;;;26.44;39.33;97574.19;5007721;28;20054;-54
2022/07/23 00:08:06;;;;;;;6.05;5.47;;;26.30;44.10;;;26.37;39.25;97559.97;5006949;28;20263;-53
2022/07/23 00:10:40;;;;;;;6.18;5.57;;;26.20;44.00;;;26.40;39.16;97570.34;5005641;28;20236;-52
2022/07/23 00:13:09;;;;;;;6.00;5.40;;;26.20;44.70;;;26.36;39.29;97577.44;5006204;28;20137;-56
2022/07/23 00:15:37;;;;;;;5.47;5.07;;;26.20;43.90;;;26.32;39.36;97566.22;5006361;28;20050;-56
2022/07/23 00:18:05;;;;;;;6.25;5.68;;;26.20;44.20;;;26.28;39.39;97558.84;5005988;28;20789;-55
2022/07/23 00:20:33;;;;;;;6.60;5.85;;;26.20;44.50;;;26.25;39.59;97554.75;5006024;28;20063;-52
2022/07/23 00:23:01;;;;;;;5.55;5.05;;;26.20;44.60;;;26.24;39.72;97555.00;5005283;28;20045;-54
2022/07/23 00:25:29;;;;;;;6.35;5.22;;;26.10;44.70;;;26.22;39.92;97565.34;5007395;28;20046;-54
2022/07/23 00:27:59;;;;;;;5.75;5.25;;;26.10;45.10;;;26.17;39.95;97555.22;5007695;28;20065;-57
2022/07/23 00:30:29;;;;;;;6.32;5.72;;;26.10;45.20;;;26.17;40.07;97565.31;5004311;28;20068;-54
2022/07/23 00:33:02;;;;;;;6.60;5.95;;;26.00;45.30;;;26.15;40.10;97564.75;5005411;28;20065;-56
2022/07/23 00:35:32;;;;;;;;;;;26.00;45.50;;;26.10;40.14;97560.09;5010614;28;20076;-54
2022/07/23 00:38:02;;;;;;;6.38;5.65;;;25.90;45.50;;;26.12;39.84;97553.28;5009562;28;19925;-55
2022/07/23 00:40:31;;;;;;;6.00;5.40;;;25.90;45.20;;;26.09;40.25;97563.91;5009568;28;20410;-56
2022/07/23 00:42:59;;;;;;;7.53;6.07;;;25.90;45.20;;;26.05;40.09;97555.41;5010558;28;20076;-57
2022/07/23 00:45:27;;;;;;;6.25;5.65;;;25.90;45.30;;;26.03;40.65;97556.78;5009548;28;20348;-57
2022/07/23 00:47:56;;;;;;;7.07;5.63;;;25.80;45.60;;;25.96;40.85;97548.84;5008477;28;20038;-53
2022/07/23 00:50:25;;;;;;;7.75;5.50;;;25.80;45.90;;;25.93;40.58;97541.19;5009866;28;20054;-56
2022/07/23 00:52:53;;;;;;;6.15;5.55;;;25.70;46.10;;;25.90;40.74;97538.94;5009998;28;20076;-57
2022/07/23 00:55:21;;;;;;;6.68;5.45;;;25.70;46.20;;;25.90;40.35;97538.94;5009805;28;20061;-57
2022/07/23 00:57:51;;;;;;;5.75;5.25;;;25.80;46.00;;;25.88;40.95;97552.84;5010305;28;20060;-55
2022/07/23 01:00:19;;;;;;;5.47;4.97;;;25.70;46.20;;;25.85;40.71;97550.63;5008646;28;20066;-55
2022/07/23 01:02:47;;;;;;;6.22;5.63;;;25.60;46.20;;;25.84;40.63;97556.34;5009498;28;20229;-52
2022/07/23 01:05:16;;;;;;;5.88;5.30;;;25.60;46.20;;;25.83;40.82;97549.25;5010127;28;20562;-51
2022/07/23 01:07:45;;;;;;;5.55;5.03;;;25.60;46.20;;;25.74;40.81;97559.81;5007862;28;20068;-55
2022/07/23 01:10:31;;;;;;;6.22;5.63;;;25.50;46.60;;;25.64;41.10;97563.28;5007196;28;20052;-53
2022/07/23 01:13:09;;;;;;;6.22;5.63;;;25.30;47.50;;;25.58;41.21;97553.44;5009251;28;20050;-56
2022/07/23 01:15:38;;;;;;;6.25;5.65;;;25.30;48.10;;;25.57;41.40;97550.97;5008948;28;20478;-54
2022/07/23 01:18:07;;;;;;;6.50;5.35;;;25.30;47.70;;;25.56;41.60;97549.34;5008856;28;20068;-51
2022/07/23 01:20:37;;;;;;;5.97;5.38;;;25.30;47.70;;;25.56;41.53;97546.59;5007316;28;20296;-52
2022/07/23 01:23:06;;;;;;;6.45;5.80;;;25.30;47.60;;;25.56;41.59;97538.44;5007309;28;20261;-54
2022/07/23 01:25:34;;;;;;;8.95;5.55;;;25.30;47.70;;;25.52;41.74;97538.13;5008594;28;20046;-53
2022/07/23 01:28:04;;;;;;;6.28;5.68;;;25.30;47.80;;;25.46;41.78;97541.91;5009287;28;20053;-54
2022/07/23 01:30:32;;;;;;;5.63;5.03;;;25.20;47.80;;;25.43;41.74;97526.88;5007372;28;20045;-52
2022/07/23 01:33:02;;;;;;;6.40;5.80;;;25.10;47.90;;;25.41;41.82;97520.84;5007097;28;20367;-54
2022/07/23 01:35:30;;;;;;;6.50;5.90;;;25.20;47.80;;;25.41;42.02;97514.59;5008331;28;20052;-54
2022/07/23 01:38:02;;;;;;;6.85;6.18;;;25.20;47.80;;;25.28;42.20;97516.69;5009001;28;20244;-52
2022/07/23 01:40:30;;;;;;;8.63;7.43;;;25.10;48.40;;;25.28;42.19;97516.69;5007257;28;20248;-55
2022/07/23 01:42:59;;;;;;;7.03;5.90;;;25.00;48.50;;;25.29;42.06;97529.22;5007558;28;20048;-56
2022/07/23 01:45:29;;;;;;;6.22;5.63;;;25.00;48.50;;;25.28;42.09;97526.75;5007294;28;20362;-55
2022/07/23 01:47:57;;;;;;;7.32;6.63;;;25.00;48.30;;;25.25;41.90;97530.81;5009579;28;20068;-54
2022/07/23 01:50:25;;;;;;;6.32;5.72;;;25.00;48.20;;;25.20;41.81;97532.63;5007036;28;20060;-55
2022/07/23 01:53:14;;;;;;;6.30;5.40;;;24.90;48.10;;;25.19;41.81;97529.09;5008858;28;20046;-54
2022/07/23 01:55:42;;;;;;;6.72;6.05;;;24.90;47.90;;;25.02;41.87;97529.19;5040945;28;20248;-52
2022/07/23 01:58:11;;;;;;;8.25;5.60;;;24.70;48.10;;;24.98;41.83;97538.97;5041163;28;20046;-51
2022/07/23 02:00:39;;;;;;;6.65;6.05;;;24.70;48.40;;;24.92;41.95;97540.81;5007910;28;20050;-54
2022/07/23 02:03:07;;;;;;;7.20;6.35;;;24.70;48.40;;;24.90;42.03;97537.53;5007005;28;20048;-55
2022/07/23 02:05:37;;;;;;;6.22;5.65;;;24.60;48.60;;;24.85;42.12;97529.28;5007093;28;20080;-53
2022/07/23 02:08:05;;;;;;;6.90;6.22;;;24.60;48.50;;;24.86;42.37;97521.97;5007587;28;20050;-55
2022/07/23 02:10:36;;;;;;;6.95;5.45;;;24.60;48.60;;;24.84;42.36;97524.94;5007457;28;20054;-55
2022/07/23 02:13:04;;;;;;;7.07;5.68;;;24.50;48.70;;;24.84;42.25;97530.38;5007163;28;20053;-51
2022/07/23 02:15:32;;;;;;;6.97;5.55;;;24.60;48.50;;;24.76;42.47;97545.28;5009337;28;20054;-52
2022/07/23 02:18:00;;;;;;;7.88;5.78;;;24.50;48.80;;;24.80;42.31;97558.38;5007998;28;20060;-54
2022/07/23 02:20:28;;;;;;;7.03;6.32;;;24.50;48.80;;;24.80;42.39;97570.09;5008053;28;20349;-55
2022/07/23 02:22:56;;;;;;;6.15;5.55;;;24.50;48.70;;;24.80;42.43;97578.25;5007485;28;20049;-55
2022/07/23 02:25:24;;;;;;;7.43;5.20;;;24.60;48.50;;;24.84;42.37;97575.84;5008416;28;20042;-56
2022/07/23 02:27:58;;;;;;;6.78;6.15;;;24.60;48.50;;;24.85;42.28;97580.19;5006680;28;20072;-54
2022/07/23 02:30:26;;;;;;;6.13;5.55;;;24.60;48.50;;;24.85;42.56;97580.19;5006487;28;20394;-53
2022/07/23 02:32:54;;;;;;;6.82;6.10;;;24.60;48.60;;;24.83;42.55;97588.63;5006378;28;20068;-51
2022/07/23 02:35:24;;;;;;;6.18;5.57;;;24.60;48.90;;;24.83;42.73;97590.53;5005586;28;20068;-54
2022/07/23 02:37:53;;;;;;;6.22;5.47;;;24.60;49.00;;;24.80;42.51;97596.50;5024066;28;20046;-52
2022/07/23 02:40:21;;;;;;;6.78;6.05;;;24.50;49.10;;;24.74;42.73;97599.16;5007597;28;20440;-55
2022/07/23 02:42:49;;;;;;;7.18;5.32;;;24.50;49.30;;;24.74;42.76;97598.34;5006013;28;20065;-50
2022/07/23 02:45:17;;;;;;;7.07;6.38;;;24.50;49.40;;;24.74;42.76;97590.97;5008040;28;20060;-55
2022/07/23 02:47:45;;;;;;;6.03;5.53;;;24.50;49.20;;;24.77;42.67;97592.34;5008144;28;20052;-54
2022/07/23 02:50:13;;;;;;;6.95;6.25;;;24.50;49.00;;;24.79;42.68;97605.72;5004295;28;20348;-52
2022/07/23 02:52:42;;;;;;;7.18;5.95;;;24.50;48.90;;;24.77;42.63;97611.41;5005885;28;20068;-54
2022/07/23 02:55:10;;;;;;;6.93;6.03;;;24.50;49.00;;;24.76;42.78;97621.50;5006394;28;20053;-51
2022/07/23 02:57:38;;;;;;;5.78;5.13;;;24.50;49.10;;;24.73;42.81;97629.34;5007055;28;20057;-55
2022/07/23 03:00:07;;;;;;;6.47;5.65;;;24.50;49.10;;;24.69;42.86;97637.19;5007104;28;20225;-55
2022/07/23 03:02:35;;;;;;;6.18;5.50;;;24.50;49.30;;;24.67;42.94;97639.34;5006887;28;20057;-51
2022/07/23 03:05:04;;;;;;;6.28;5.68;;;24.40;49.40;;;24.65;43.04;97630.59;5006286;28;20041;-52
2022/07/23 03:07:47;;;;;;;6.30;5.28;;;24.40;49.60;;;24.64;43.04;97641.72;5038685;28;20054;-52
2022/07/23 03:10:15;;;;;;;6.07;5.43;;;24.40;49.60;;;24.56;43.62;97637.53;5007558;28;20054;-55
2022/07/23 03:12:44;;;;;;;6.35;5.75;;;24.30;50.20;;;24.53;43.69;97646.22;5005310;28;20062;-53
2022/07/23 03:15:12;;;;;;;6.65;6.05;;;24.20;50.40;;;24.50;43.86;97638.53;5005164;28;20360;-54
2022/07/23 03:17:40;;;;;;;6.47;5.88;;;24.20;50.60;;;24.48;43.96;97627.88;5007320;28;20046;-56
2022/07/23 03:20:09;;;;;;;6.18;5.68;;;24.20;50.80;;;24.50;44.05;97623.00;5007242;28;20068;-53
2022/07/23 03:22:39;;;;;;;7.60;6.88;;;24.30;50.90;;;24.50;44.47;97625.72;5006687;28;20064;-55
2022/07/23 03:25:08;;;;;;;8.52;7.57;;;24.30;51.00;;;24.48;44.38;97619.72;5007107;28;20369;-54
2022/07/23 03:27:36;;;;;;;7.20;6.03;;;24.30;51.20;;;24.47;44.39;97618.09;5006598;28;20060;-51
2022/07/23 03:30:05;;;;;;;7.72;6.75;;;24.20;51.20;;;24.46;44.41;97623.78;5038451;28;20360;-55
2022/07/23 03:32:34;;;;;;;6.47;5.95;;;24.20;51.40;;;24.40;44.62;97624.78;5007202;28;20048;-56
2022/07/23 03:35:04;;;;;;;6.63;6.03;;;24.10;51.80;;;24.38;44.72;97627.75;5007233;28;20045;-54
2022/07/23 03:37:35;;;;;;;6.70;6.03;;;24.10;52.00;;;24.36;44.65;97624.47;5006186;28;20068;-54
2022/07/23 03:40:04;;;;;;;7.93;6.68;;;24.10;51.80;;;24.37;44.73;97626.94;5005010;28;20068;-53
2022/07/23 03:42:32;;;;;;;6.93;6.28;;;24.10;51.70;;;24.40;44.79;97632.94;5005555;28;20062;-54
2022/07/23 03:45:01;;;;;;;7.25;6.55;;;24.10;51.70;;;24.31;45.20;97627.94;5007431;28;20042;-55
2022/07/23 03:47:29;;;;;;;7.60;6.90;;;24.00;52.20;;;24.25;45.27;97628.91;5006280;28;20046;-55
2022/07/23 03:49:58;;;;;;;7.13;6.43;;;23.90;52.70;;;24.18;45.64;97639.16;5005775;28;20057;-56
2022/07/23 03:52:26;;;;;;;7.10;6.13;;;23.80;53.00;;;24.11;45.74;97638.50;5005054;28;20050;-52
2022/07/23 03:54:54;;;;;;;7.20;6.60;;;23.80;53.40;;;24.04;46.25;97635.97;5006740;28;20114;-55
2022/07/23 03:57:23;;;;;;;7.40;6.28;;;23.70;53.90;;;23.97;46.45;97641.56;5005403;28;20341;-54
2022/07/23 03:59:51;;;;;;;6.40;5.65;;;23.60;54.10;;;23.94;46.03;97635.78;5005728;28;20066;-52
2022/07/23 04:02:19;;;;;;;6.57;5.97;;;23.60;54.10;;;23.93;46.26;97640.41;5006915;28;20579;-50
2022/07/23 04:04:47;;;;;;;6.50;5.63;;;23.60;54.10;;;23.92;46.51;97638.78;5005174;28;20050;-50
2022/07/23 04:07:17;;;;;;;7.53;6.30;;;23.60;54.00;;;23.92;46.15;97636.06;5006674;28;20060;-54
2022/07/23 04:09:45;;;;;;;6.07;5.47;;;23.60;54.00;;;23.92;46.52;97643.38;5007676;28;20801;-55
2022/07/23 04:12:14;;;;;;;7.13;6.43;;;23.60;54.10;;;23.94;46.36;97643.94;5009377;28;20056;-55
2022/07/23 04:14:42;;;;;;;7.30;6.05;;;23.70;54.00;;;23.95;46.47;97646.44;5010182;28;20054;-55
2022/07/23 04:17:11;;;;;;;6.70;5.68;;;23.70;53.90;;;23.96;46.37;97645.38;5008392;28;20072;-53
2022/07/23 04:19:41;;;;;;;6.78;5.63;;;23.70;53.80;;;23.98;46.27;97639.66;5040406;28;20244;-55
2022/07/23 04:22:13;;;;;;;6.40;5.80;;;23.70;53.50;;;24.04;45.84;97635.97;5008321;28;20370;-54
2022/07/23 04:24:42;;;;;;;5.55;5.00;;;23.80;53.10;;;24.05;45.92;97634.88;5009419;28;20057;-54
2022/07/23 04:27:12;;;;;;;10.13;5.53;;;23.80;53.00;;;24.03;45.86;97642.47;5041277;28;20075;-51
2022/07/23 04:29:40;;;;;;;5.43;4.93;;;23.80;52.90;;;24.00;46.02;97642.97;5010632;28;20062;-53
2022/07/23 04:32:09;;;;;;;5.63;5.13;;;23.80;52.90;;;24.00;45.69;97639.41;5009837;28;20064;-52
2022/07/23 04:34:36;;;;;;;5.82;5.28;;;23.80;52.80;;;24.03;45.52;97639.75;5009341;28;20058;-52
2022/07/23 04:37:05;;;;;;;5.57;5.00;;;23.80;52.50;;;24.05;45.20;97644.94;5009120;28;20054;-56
2022/07/23 04:39:33;;;;;;;6.80;5.32;;;23.80;52.00;;;24.07;45.24;97643.63;5009314;28;20068;-55
2022/07/23 04:42:01;;;;;;;7.18;5.70;;;23.90;52.00;;;24.11;45.14;97650.19;5007798;28;20062;-55
2022/07/23 04:44:32;;;;;;;5.72;5.15;;;23.90;51.90;;;24.12;45.33;97649.16;5009794;28;20046;-51
2022/07/23 04:47:00;;;;;;;5.60;4.93;;;23.90;52.10;;;24.11;45.41;97654.81;5008314;28;20064;-53
2022/07/23 04:49:29;;;;;;;6.60;5.95;;;23.80;52.30;;;24.11;45.49;97646.66;5008201;28;20368;-55
2022/07/23 04:51:56;;;;;;;6.22;5.68;;;23.90;52.20;;;24.13;45.13;97656.22;5008579;28;20056;-54
2022/07/23 04:54:24;;;;;;;6.47;5.88;;;23.90;52.10;;;24.13;45.21;97669.00;5009658;28;20300;-52
2022/07/23 04:56:52;;;;;;;6.50;5.90;;;23.90;52.10;;;24.11;45.28;97671.97;5009735;28;20348;-53
2022/07/23 04:59:21;;;;;;;6.78;5.93;;;23.90;52.20;;;24.12;45.60;97668.19;5006926;28;20260;-56
2022/07/23 05:01:55;;;;;;;7.03;6.28;;;23.90;52.40;;;24.10;45.47;97666.78;5008660;28;20049;-56
2022/07/23 05:04:23;;;;;;;7.93;5.60;;;23.80;52.70;;;24.06;45.83;97676.50;4993072;28;20049;-56
2022/07/23 05:06:51;;;;;;;8.65;5.85;;;23.80;53.50;;;24.06;46.17;97676.50;5007500;28;20042;-51
2022/07/23 05:09:19;;;;;;;6.50;5.90;;;23.80;53.50;;;24.09;46.42;97678.72;5009118;28;20348;-53
2022/07/23 05:11:47;;;;;;;8.35;6.50;;;23.90;53.70;;;24.13;46.32;97685.31;5042302;28;20049;-56
2022/07/23 05:14:15;;;;;;;7.50;5.72;;;23.90;53.70;;;24.17;46.58;97692.75;5009435;28;20368;-54
2022/07/23 05:16:43;;;;;;;7.75;6.35;;;23.90;53.90;;;24.17;47.53;97702.78;5008412;28;20062;-53
2022/07/23 05:19:18;;;;;;;8.40;6.95;;;23.90;55.50;;;24.13;48.96;97698.91;5040885;28;20058;-53
2022/07/23 05:21:48;;;;;;;7.28;6.57;;;23.80;57.90;;;24.06;50.02;97684.66;5007987;28;20064;-54
2022/07/23 05:24:16;;;;;;;8.45;6.65;;;23.70;59.30;;;24.00;50.82;97685.63;5008428;28;20053;-53
2022/07/23 05:26:44;;;;;;;8.75;7.10;;;23.60;61.40;;;23.90;51.47;97684.38;5007810;28;20052;-55
2022/07/23 05:29:12;;;;;;;6.80;6.10;;;23.50;62.50;;;23.81;51.67;97676.88;5008613;28;20057;-52
2022/07/23 05:31:40;;;;;;;9.25;6.60;;;23.30;62.60;;;23.79;52.30;97671.72;5009145;28;20060;-54
2022/07/23 05:34:08;;;;;;;7.63;6.93;;;23.40;63.60;;;23.82;52.12;97700.28;5007787;28;20432;-56
2022/07/23 05:36:43;;;;;;;7.93;6.50;;;23.40;63.20;;;23.78;51.67;97717.06;5008743;28;20418;-53
2022/07/23 05:39:11;;;;;;;7.75;6.70;;;23.40;62.50;;;23.76;51.34;97726.53;5006528;28;20061;-54
2022/07/23 05:41:39;;;;;;;8.73;7.45;;;23.40;62.20;;;23.68;52.61;97737.78;5006247;28;20066;-58
2022/07/23 05:44:07;;;;;;;6.72;6.00;;;23.30;64.60;;;23.55;53.34;97742.47;5008417;28;20302;-56
2022/07/23 05:46:40;;;;;;;10.07;7.65;;;23.10;66.40;;;23.47;52.37;97747.44;5007820;28;20364;-59
2022/07/23 05:49:17;;;;;;;7.90;6.25;;;23.00;64.50;;;23.14;53.65;97748.97;5008448;28;20057;-61
2022/07/23 05:52:18;;;;;;;7.20;6.50;;;22.60;66.60;;;23.09;53.77;97741.53;5007037;28;20068;-59
2022/07/23 05:55:15;;;;;;;6.95;6.35;;;22.50;67.60;;;22.94;53.90;97738.47;4972765;28;20244;-57
2022/07/23 05:57:43;;;;;;;7.28;6.57;;;22.40;67.30;;;22.97;53.45;97730.69;5007973;28;20099;-60
2022/07/23 06:00:11;;;;;;;9.00;7.13;;;22.50;66.50;;;23.04;53.19;97735.19;5008305;28;20046;-60
2022/07/23 06:02:44;;;;;;;7.28;6.57;;;22.60;65.50;;;23.07;53.33;97732.81;5007692;28;20364;-59
2022/07/23 06:05:13;;;;;;;10.02;6.63;;;22.70;65.00;;;23.07;52.70;97724.66;5007195;28;20054;-59
2022/07/23 06:07:41;;;;;;;6.75;6.05;;;22.70;64.50;;;23.13;52.88;97726.41;5040813;28;20374;-59
2022/07/23 06:10:09;;;;;;;7.90;6.00;;;22.80;64.10;;;23.19;52.34;97728.16;5040584;28;20232;-57
2022/07/23 06:12:37;;;;;;;7.25;5.80;;;22.90;62.70;;;23.25;51.68;97723.66;5006327;28;20060;-55
2022/07/23 06:15:07;;;;;;;7.22;6.53;;;23.00;62.30;;;23.28;52.04;97709.59;5007740;28;20052;-58
2022/07/23 06:17:39;;;;;;;7.07;6.35;;;23.10;62.10;;;23.31;51.87;97711.00;5007893;28;20046;-57
2022/07/23 06:20:08;;;;;;;8.43;6.75;;;23.10;61.80;;;23.37;51.79;97724.44;5040202;28;20053;-59
2022/07/23 06:22:38;;;;;;;7.13;5.68;;;23.20;61.60;;;23.44;51.63;97728.91;5007906;28;20068;-59
2022/07/23 06:25:07;;;;;;;6.85;6.22;;;23.20;61.30;;;23.50;51.63;97742.34;5008413;28;20054;-59
2022/07/23 06:27:47;;;;;;;6.35;5.75;;;23.30;61.40;;;23.51;50.86;97745.91;5006473;28;20064;-60
2022/07/23 06:30:17;;;;;;;7.90;5.63;;;23.30;60.20;;;23.51;51.05;97744.00;5006539;28;20079;-59
2022/07/23 06:32:46;;;;;;;10.45;7.05;;;23.30;60.60;;;23.55;50.73;97744.34;5007628;28;20041;-58
2022/07/23 06:35:16;;;;;;;7.10;6.40;;;23.40;60.30;;;23.53;50.78;97751.91;5006541;28;20068;-57
2022/07/23 06:37:47;;;;;;;8.20;7.22;;;23.30;60.50;;;23.55;50.97;97757.94;5006878;28;20065;-57
2022/07/23 06:40:16;;;;;;;6.55;5.95;;;23.30;60.80;;;23.58;50.48;97771.03;5006734;28;20076;-57
2022/07/23 06:42:44;;;;;;;8.25;7.10;;;23.30;59.90;;;23.49;50.89;97799.66;5007532;28;20060;-60
2022/07/23 06:45:18;;;;;;;7.63;6.93;;;23.10;61.30;;;23.17;52.74;97813.66;5005877;28;20062;-57
2022/07/23 06:47:47;;;;;;;7.68;6.47;;;22.70;64.70;;;23.00;54.05;97811.63;5039225;28;20053;-59
2022/07/23 06:50:15;;;;;;;9.43;6.75;;;22.50;66.70;;;22.92;54.37;97825.56;5006530;28;20068;-57
2022/07/23 06:52:43;;;;;;;7.97;7.22;;;22.40;67.30;;;22.87;54.42;97813.75;5006659;28;20062;-56
2022/07/23 06:55:11;;;;;;;9.45;7.68;;;22.40;67.80;;;22.73;54.21;97822.13;5007327;28;20068;-55
2022/07/23 06:57:39;;;;;;;8.65;7.10;;;22.20;67.80;;;22.61;55.42;97821.31;5005179;28;20275;-57
2022/07/23 07:00:09;;;;;;;7.88;6.90;;;22.20;69.30;;;22.44;56.15;97826.56;5005727;28;20058;-57
2022/07/23 07:02:37;;;;;;;8.82;6.97;;;22.00;70.70;;;22.31;58.73;97824.88;5022191;28;20263;-57
2022/07/23 07:05:06;;;;;;;8.30;6.72;;;21.80;76.20;;;22.20;59.47;97804.00;5005560;28;20049;-56
2022/07/23 07:07:34;;;;;;;8.73;7.40;;;21.60;80.10;;;22.18;59.52;97782.53;5006129;28;20072;-58
2022/07/23 07:10:03;;;;;;;7.75;6.95;;;21.60;82.50;;;22.22;59.68;97769.34;5005918;28;20356;-57
2022/07/23 07:12:31;;;;;;;9.85;7.63;;;21.70;82.80;;;22.26;59.70;97784.09;5007145;28;20046;-56
2022/07/23 07:14:59;;;;;;;8.70;7.35;;;21.70;83.30;;;22.19;60.12;97791.47;5006382;28;20340;-53
2022/07/23 07:17:27;;;;;;;11.10;7.70;;;21.60;86.50;;;22.08;60.79;97794.97;5006709;28;20049;-58
2022/07/23 07:19:55;;;;;;;9.95;7.88;;;21.40;90.20;;;21.99;60.91;97791.78;5007270;28;20256;-57
2022/07/23 07:22:23;;;;;;;9.52;7.00;;;21.30;91.60;;;21.73;62.73;97795.69;5006579;28;20056;-57
2022/07/23 07:24:50;;;;;;;9.77;7.78;;;21.10;95.50;;;21.57;62.59;97792.53;5007195;28;20243;-56
2022/07/23 07:27:18;;;;;;;8.88;7.53;;;20.90;99.90;;;21.40;63.41;97780.66;5007346;28;20390;-56
2022/07/23 07:29:46;;;;;;;9.05;7.10;;;20.70;99.90;;;21.29;63.61;97776.03;5005958;28;20042;-54
2022/07/23 07:32:14;;;;;;;8.95;7.60;;;20.70;99.90;;;21.26;63.88;97774.56;5006845;28;20045;-56
2022/07/23 07:35:06;;;;;;;8.95;7.90;;;20.70;99.90;;;21.27;63.89;97784.38;5007218;28;20072;-55
2022/07/23 07:37:33;;;;;;;10.68;7.30;;;20.70;99.90;;;21.22;63.86;97792.31;5006054;28;20225;-58
2022/07/23 07:40:02;;;;;;;10.23;7.72;;;20.70;99.90;;;21.31;63.60;97799.09;5006665;28;20491;-56
2022/07/23 07:42:32;;;;;;;8.85;7.95;;;20.90;99.90;;;21.48;63.57;97802.06;5006829;28;20240;-57
2022/07/23 07:45:00;;;;;;;8.88;7.70;;;21.10;99.90;;;21.66;63.40;97803.09;5004188;28;20049;-55
2022/07/23 07:47:27;;;;;;;8.13;7.32;;;21.40;99.90;;;21.80;62.86;97809.97;5005385;28;20049;-57
2022/07/23 07:49:56;;;;;;;7.88;7.07;;;21.50;99.90;;;21.92;62.82;97818.16;5004360;28;20042;-57
2022/07/23 07:52:23;;;;;;;8.00;7.05;;;21.70;99.90;;;21.97;62.50;97827.25;5006092;28;20045;-55
2022/07/23 07:54:51;;;;;;;8.70;7.30;;;21.70;99.90;;;22.00;62.59;97815.09;5005880;28;20171;-57
2022/07/23 07:57:19;;;;;;;9.75;8.77;;;21.70;99.50;;;22.09;62.96;97799.34;5004657;28;20352;-56
2022/07/23 07:59:47;;;;;;;8.30;7.50;;;21.80;99.80;;;22.16;62.84;97800.09;5007023;28;20363;-53
2022/07/23 08:02:23;;;;;;;7.80;6.90;;;21.90;98.80;;;22.25;62.50;97804.13;5015719;28;20111;-58
2022/07/23 08:04:51;;;;;;;8.60;7.32;;;22.00;97.70;;;22.30;62.72;97800.75;5015633;28;20173;-57
2022/07/23 08:07:19;;;;;;;7.40;6.70;;;22.10;98.20;;;22.38;62.18;97800.41;5015401;28;20105;-57
2022/07/23 08:09:47;;;;;;;8.10;6.78;;;22.20;96.10;;;22.47;62.27;97817.13;5015390;28;20041;-58
2022/07/23 08:12:15;;;;;;;8.63;7.05;;;22.30;96.00;;;22.51;62.25;97815.63;5015001;28;20048;-60
2022/07/23 08:14:44;;;;;;;9.60;7.60;;;22.40;95.50;;;22.58;62.69;97819.88;5017180;28;20336;-62
2022/07/23 08:17:12;;;;;;;8.05;7.25;;;22.40;95.70;;;22.63;62.23;97826.50;5008761;28;20064;-60
2022/07/23 08:19:42;;;;;;;8.35;6.72;;;22.40;94.00;;;22.67;62.20;97820.34;5005600;28;20063;-60
2022/07/23 08:22:10;;;;;;;7.10;6.25;;;22.50;93.30;;;22.80;61.21;97825.56;5006565;28;20049;-61
2022/07/23 08:24:38;;;;;;;7.43;6.13;;;22.70;90.00;;;22.91;61.06;97823.06;5007434;28;20054;-60
2022/07/23 08:27:05;;;;;;;7.10;6.40;;;22.90;88.50;;;23.04;60.33;97836.44;5005063;28;20272;-61
2022/07/23 08:29:33;;;;;;;8.18;6.32;;;23.10;83.10;;;23.13;60.25;97832.31;5005194;28;20062;-60
2022/07/23 08:32:01;;;;;;;7.57;6.72;;;23.10;84.10;;;23.25;59.88;97831.47;5006108;28;20046;-60
2022/07/23 08:34:49;;;;;;;7.07;6.38;;;23.20;83.40;;;23.35;59.51;97842.56;5006650;28;20057;-61
2022/07/23 08:37:16;;;;;;;8.27;7.20;;;23.30;81.70;;;23.41;58.34;97832.63;5006924;28;20375;-60
2022/07/23 08:39:44;;;;;;;8.05;6.05;;;23.40;78.80;;;23.46;58.01;97833.56;5005155;28;20064;-60
2022/07/23 08:42:14;;;;;;;6.57;5.88;;;23.40;78.00;;;23.54;57.62;97830.47;5006886;28;20050;-61
2022/07/23 08:44:46;;;;;;;6.68;6.03;;;23.40;76.80;;;23.59;57.90;97824.31;5004699;28;20057;-61
2022/07/23 08:47:15;;;;;;;6.25;5.65;;;23.50;77.40;;;23.66;56.69;97819.56;5005633;28;20256;-61
2022/07/23 08:49:45;;;;;;;5.57;4.97;;;23.60;75.50;;;23.70;54.12;97822.63;4989176;28;20060;-61
2022/07/23 08:52:14;;;;;;;5.28;4.78;;;23.60;69.80;;;23.73;53.55;97817.53;4987623;28;20048;-60
2022/07/23 08:54:42;;;;;;;5.68;5.00;;;23.70;68.60;;;23.78;53.50;97822.28;5018052;28;20061;-61
2022/07/23 08:57:10;;;;;;;5.20;4.70;;;23.70;68.30;;;23.83;53.19;97813.41;5020913;28;20259;-61
2022/07/23 08:59:38;;;;;;;5.70;5.10;;;23.70;67.70;;;23.90;53.10;97816.78;5006559;28;20044;-61
2022/07/23 09:02:06;;;;;;;6.65;4.88;;;23.90;67.50;;;23.97;52.96;97815.56;5018381;28;20236;-61
2022/07/23 09:04:34;;;;;;;5.82;5.32;;;24.10;67.10;;;24.05;52.60;97816.25;5018828;28;20054;-61
2022/07/23 09:07:02;;;;;;;5.75;4.78;;;24.10;65.70;;;24.11;51.89;97809.84;5018836;28;20064;-61
2022/07/23 09:09:31;;;;;;;5.25;4.75;;;24.20;64.30;;;24.13;50.27;97816.66;5020111;28;20053;-61
2022/07/23 09:12:08;;;;;;;6.65;5.68;;;24.10;62.20;;;24.18;50.33;97821.38;5018485;28;20272;-61
2022/07/23 09:14:49;;;;;;;6.00;4.90;;;24.30;61.60;;;24.22;50.68;97825.28;5022845;28;20042;-61
2022/07/23 09:17:18;;;;;;;5.40;4.90;;;24.30;61.10;;;24.19;49.19;97833.91;5025303;28;20063;-60
2022/07/23 09:19:46;;;;;;;5.22;4.72;;;24.20;60.10;;;24.21;50.05;97822.78;5024591;28;20046;-59
2022/07/23 09:22:26;;;;;;;5.28;4.80;;;24.20;61.90;;;24.15;49.38;97819.97;5025073;28;20045;-60
2022/07/23 09:25:13;;;;;;;6.80;5.35;;;24.20;59.90;;;24.16;49.44;97831.69;5024599;28;20370;-60
2022/07/23 09:27:54;;;;;;;5.90;5.40;;;24.10;60.20;;;24.17;49.16;97825.16;5023370;28;20057;-60
2022/07/23 09:30:27;;;;;;;5.82;5.25;;;24.10;59.60;;;24.21;49.60;97831.75;5024160;28;20056;-60
2022/07/23 09:33:15;;;;;;;6.32;5.72;;;24.20;60.80;;;24.09;49.60;97831.81;5022789;28;20046;-59
2022/07/23 09:35:55;;;;;;;6.03;5.43;;;24.20;61.00;;;24.13;49.37;97827.53;5021505;28;20060;-60
2022/07/23 09:38:25;;;;;;;5.43;4.93;;;24.10;60.80;;;24.16;50.35;97828.97;5020147;28;20239;-60
2022/07/23 09:41:10;;;;;;;6.68;5.43;;;24.20;62.30;;;24.22;49.58;97814.38;5014301;28;20065;-60
2022/07/23 09:43:38;;;;;;;5.15;4.70;;;24.30;60.30;;;24.32;48.59;97827.34;5015060;28;20244;-60
2022/07/23 09:46:27;;;;;;;5.47;4.97;;;24.40;59.00;;;24.38;47.97;97813.56;5014707;28;20046;-60
2022/07/23 09:48:56;;;;;;;5.93;4.90;;;24.50;56.10;;;24.44;47.37;97817.19;5011675;28;20048;-60
2022/07/23 09:51:36;;;;;;;5.53;5.03;;;24.60;56.90;;;24.48;47.52;97829.25;5012382;28;20058;-60
2022/07/23 09:54:04;;;;;;;6.80;6.03;;;24.70;57.20;;;24.54;47.98;97828.31;5011355;28;20092;-60
2022/07/23 09:56:35;;;;;;;6.03;5.38;;;24.70;58.10;;;24.57;47.35;97824.25;5011860;28;20062;-60
2022/07/23 09:59:05;;;;;;;6.43;5.82;;;24.80;56.60;;;24.59;47.89;97824.84;5010697;28;20540;-61
2022/07/23 10:01:34;;;;;;;6.05;5.55;;;24.70;58.00;;;24.71;48.33;97822.84;5009236;28;20053;-58
2022/07/23 10:04:02;;;;;;;7.53;6.78;;;24.90;58.30;;;24.76;50.21;97835.72;5008844;28;20057;-60
2022/07/23 10:06:57;;;;;;;6.85;6.20;;;24.90;61.10;;;24.73;52.31;97833.50;4999560;28;20070;-61
2022/07/23 10:09:46;;;;;;;7.53;6.45;;;24.90;65.20;;;24.80;51.60;97831.44;5010544;28;20052;-59
2022/07/23 10:15:54;;;;;;;7.20;6.60;;;24.80;62.90;;;24.83;51.34;97833.63;5006197;28;20058;-60
2022/07/23 10:18:22;;;;;;;6.88;6.25;;;24.90;63.60;;;24.96;51.62;97827.84;5008967;28;20360;-60
2022/07/23 10:20:50;;;;;;;7.80;7.10;;;25.10;63.20;;;24.97;51.54;97825.97;5008679;28;20053;-60
2022/07/23 10:23:42;;;;;;;6.93;6.22;;;25.10;62.70;;;25.03;50.95;97824.13;5008807;28;20050;-61
2022/07/23 10:26:47;;;;;;;7.43;6.60;;;25.20;62.50;;;25.15;51.32;97828.41;5007018;28;20054;-61
2022/07/23 10:29:44;;;;;;;6.93;6.32;;;25.30;62.70;;;25.26;49.51;97823.13;5008267;28;20364;-54
2022/07/23 10:32:55;;;;;;;6.65;5.95;;;25.50;58.50;;;25.25;47.93;97824.22;5006977;28;20336;-50
2022/07/23 10:35:53;;;;;;;6.90;6.28;;;25.50;56.80;;;25.37;48.87;97816.72;5007617;28;20068;-54
2022/07/23 10:38:29;;;;;;;8.07;7.15;;;25.60;58.00;;;25.39;48.56;97819.22;5009342;28;20049;-53